createdAt,value
2019-05-30T00:00:50.535Z,4.96
2019-05-30T00:03:21.311Z,4.95
2019-05-30T00:05:52.603Z,4.91
2019-05-30T00:08:24.127Z,4.85
2019-05-30T00:10:56.419Z,4.80
2019-05-30T00:13:27.068Z,4.78
2019-05-30T00:15:59.318Z,4.73
2019-05-30T00:18:43.138Z,4.71
2019-05-30T00:21:13.574Z,4.68
2019-05-30T00:23:43.995Z,4.66
2019-05-30T00:26:14.732Z,4.67
2019-05-30T00:28:45.175Z,4.67
2019-05-30T00:31:17.898Z,4.66
2019-05-30T00:33:48.373Z,4.61
2019-05-30T00:36:18.771Z,4.51
2019-05-30T00:38:49.138Z,4.50
2019-05-30T00:41:19.535Z,4.45
2019-05-30T00:43:50.645Z,4.45
2019-05-30T00:46:21.127Z,4.45
2019-05-30T00:48:53.029Z,4.43
2019-05-30T00:51:23.723Z,4.38
2019-05-30T00:53:58.594Z,4.33
2019-05-30T00:56:29.063Z,4.27
2019-05-30T00:59:00.915Z,4.22
2019-05-30T01:01:34.609Z,4.18
2019-05-30T01:04:10.407Z,4.18
2019-05-30T01:06:41.850Z,4.16
2019-05-30T01:09:12.254Z,4.19
2019-05-30T01:11:48.666Z,4.21
2019-05-30T01:14:19.072Z,4.21
2019-05-30T01:16:49.636Z,4.18
2019-05-30T01:19:20.059Z,4.15
2019-05-30T01:21:51.561Z,4.12
2019-05-30T01:24:22.114Z,4.11
2019-05-30T01:26:53.000Z,4.09
2019-05-30T01:29:23.649Z,4.04
2019-05-30T01:31:54.092Z,4.07
2019-05-30T01:34:24.589Z,4.07
2019-05-30T01:36:55.054Z,4.06
2019-05-30T01:39:25.818Z,3.98
2019-05-30T01:41:57.650Z,3.93
2019-05-30T01:44:28.300Z,3.88
2019-05-30T01:47:00.086Z,3.85
2019-05-30T01:49:31.761Z,3.82
2019-05-30T01:52:02.446Z,3.81
2019-05-30T01:54:33.422Z,3.82
2019-05-30T01:57:04.691Z,3.80
2019-05-30T01:59:35.150Z,3.77
2019-05-30T02:02:07.079Z,3.78
2019-05-30T02:04:41.086Z,3.76
2019-05-30T02:07:12.022Z,3.73
2019-05-30T02:09:42.449Z,3.76
2019-05-30T02:12:12.898Z,3.73
2019-05-30T02:14:43.269Z,3.70
2019-05-30T02:17:13.939Z,3.67
2019-05-30T02:19:44.362Z,3.65
2019-05-30T02:22:15.128Z,3.64
2019-05-30T02:24:47.137Z,3.61
2019-05-30T02:27:17.849Z,3.62
2019-05-30T02:29:49.332Z,3.56
2019-05-30T02:32:19.790Z,3.55
2019-05-30T02:34:51.664Z,3.55
2019-05-30T02:37:22.066Z,3.55
2019-05-30T02:39:54.564Z,3.52
2019-05-30T02:42:24.979Z,3.49
2019-05-30T02:44:55.440Z,3.47
2019-05-30T02:47:25.915Z,3.46
2019-05-30T02:49:56.841Z,3.46
2019-05-30T02:52:27.272Z,3.45
2019-05-30T02:54:57.679Z,3.41
2019-05-30T02:57:28.109Z,3.36
2019-05-30T02:59:58.488Z,3.34
2019-05-30T03:02:28.941Z,3.32
2019-05-30T03:04:59.317Z,3.32
2019-05-30T03:07:29.748Z,3.38
2019-05-30T03:10:02.709Z,3.35
2019-05-30T03:12:33.778Z,3.29
2019-05-30T03:15:06.398Z,3.29
2019-05-30T03:17:36.687Z,3.25
2019-05-30T03:20:17.664Z,3.22
2019-05-30T03:22:39.223Z,3.25
2019-05-30T03:25:11.049Z,3.20
2019-05-30T03:27:41.890Z,3.26
2019-05-30T03:30:27.447Z,3.28
2019-05-30T03:33:19.103Z,3.33
2019-05-30T03:35:30.316Z,3.42
2019-05-30T03:37:57.255Z,3.60
2019-05-30T03:40:29.644Z,3.63
2019-05-30T03:43:15.978Z,3.68
2019-05-30T03:45:46.826Z,3.72
2019-05-30T03:48:17.396Z,3.73
2019-05-30T03:50:51.034Z,3.70
2019-05-30T03:53:21.493Z,3.69
2019-05-30T03:55:57.550Z,3.71
2019-05-30T03:58:59.833Z,3.77
2019-05-30T04:01:54.903Z,3.84
2019-05-30T04:04:29.738Z,3.92
2019-05-30T04:07:11.978Z,3.98
2019-05-30T04:09:44.095Z,4.04
2019-05-30T04:12:40.084Z,4.08
2019-05-30T04:15:18.557Z,4.15
2019-05-30T04:17:50.011Z,4.22
2019-05-30T04:20:22.848Z,4.29
2019-05-30T04:22:52.505Z,4.38
2019-05-30T04:25:23.212Z,4.43
2019-05-30T04:27:53.673Z,4.52
2019-05-30T04:30:24.087Z,4.59
2019-05-30T04:32:54.567Z,4.68
2019-05-30T04:35:24.985Z,4.76
2019-05-30T04:37:55.379Z,4.87
2019-05-30T04:40:26.160Z,4.97
2019-05-30T04:42:56.558Z,5.10
2019-05-30T04:45:28.187Z,5.26
2019-05-30T04:47:59.187Z,5.35
2019-05-30T04:50:29.587Z,5.47
2019-05-30T04:53:00.486Z,5.61
2019-05-30T04:55:30.885Z,5.78
2019-05-30T04:58:01.295Z,5.93
2019-05-30T05:00:31.780Z,6.08
2019-05-30T05:03:02.269Z,6.27
2019-05-30T05:05:33.029Z,6.43
2019-05-30T05:08:03.905Z,6.59
2019-05-30T05:10:34.317Z,6.78
2019-05-30T05:13:04.890Z,6.98
2019-05-30T05:15:35.305Z,7.17
2019-05-30T05:18:05.672Z,7.35
2019-05-30T05:20:36.555Z,7.49
2019-05-30T05:23:06.956Z,7.59
2019-05-30T05:25:37.690Z,7.72
2019-05-30T05:28:08.061Z,7.90
2019-05-30T05:30:38.501Z,8.10
2019-05-30T05:33:08.950Z,8.29
2019-05-30T05:35:41.776Z,8.50
2019-05-30T05:38:12.203Z,8.68
2019-05-30T05:40:42.676Z,8.86
2019-05-30T05:43:13.124Z,9.07
2019-05-30T05:45:43.509Z,9.29
2019-05-30T05:48:14.232Z,9.41
2019-05-30T05:50:44.673Z,9.65
2019-05-30T05:53:15.102Z,9.90
2019-05-30T05:55:45.582Z,10.10
2019-05-30T05:58:19.207Z,10.30
2019-05-30T06:00:51.270Z,10.64
2019-05-30T06:03:24.150Z,10.87
2019-05-30T06:05:57.877Z,11.02
2019-05-30T06:08:28.334Z,11.25
2019-05-30T06:10:59.099Z,11.44
2019-05-30T06:13:30.750Z,11.70
2019-05-30T06:16:02.866Z,12.04
2019-05-30T06:18:33.297Z,12.35
2019-05-30T06:21:03.662Z,12.38
2019-05-30T06:23:34.322Z,12.61
2019-05-30T06:26:04.744Z,12.98
2019-05-30T06:28:35.366Z,13.26
2019-05-30T06:31:06.666Z,13.45
2019-05-30T06:33:37.093Z,13.55
2019-05-30T06:36:07.551Z,13.64
2019-05-30T06:38:38.306Z,13.64
2019-05-30T06:41:08.755Z,13.66
2019-05-30T06:43:39.173Z,13.86
2019-05-30T06:46:11.030Z,13.98
2019-05-30T06:48:43.786Z,14.13
2019-05-30T06:51:14.924Z,14.19
2019-05-30T06:53:45.297Z,14.36
2019-05-30T06:56:16.131Z,14.48
2019-05-30T06:58:48.992Z,14.73
2019-05-30T07:01:20.009Z,14.73
2019-05-30T07:03:52.236Z,14.84
2019-05-30T07:06:23.875Z,15.18
2019-05-30T07:08:55.605Z,15.25
2019-05-30T07:11:29.299Z,15.32
2019-05-30T07:14:03.162Z,15.51
2019-05-30T07:16:35.257Z,15.49
2019-05-30T07:19:05.671Z,15.54
2019-05-30T07:21:36.150Z,15.53
2019-05-30T07:24:08.995Z,15.70
2019-05-30T07:26:39.602Z,15.57
2019-05-30T07:29:10.165Z,15.57
2019-05-30T07:31:44.190Z,15.67
2019-05-30T07:34:14.669Z,15.71
2019-05-30T07:36:45.137Z,16.10
2019-05-30T07:39:15.652Z,16.32
2019-05-30T07:42:05.167Z,16.49
2019-05-30T07:44:26.667Z,16.69
2019-05-30T07:46:57.178Z,16.76
2019-05-30T07:49:28.263Z,17.01
2019-05-30T07:51:59.367Z,16.97
2019-05-30T07:54:30.981Z,17.13
2019-05-30T07:57:01.652Z,17.23
2019-05-30T07:59:34.708Z,17.37
2019-05-30T08:02:05.289Z,17.38
2019-05-30T08:04:35.809Z,17.31
2019-05-30T08:07:06.293Z,17.13
2019-05-30T08:09:36.717Z,17.31
2019-05-30T08:12:07.183Z,17.38
2019-05-30T08:14:38.155Z,17.44
2019-05-30T08:17:12.880Z,17.62
2019-05-30T08:19:43.348Z,17.77
2019-05-30T08:22:14.314Z,17.84
2019-05-30T08:24:47.590Z,17.85
2019-05-30T08:27:18.822Z,18.08
2019-05-30T08:29:49.191Z,18.06
2019-05-30T08:32:28.345Z,17.85
2019-05-30T08:35:00.329Z,18.08
2019-05-30T08:37:35.070Z,18.46
2019-05-30T08:40:10.116Z,18.36
2019-05-30T08:42:42.509Z,18.64
2019-05-30T08:45:31.625Z,18.85
2019-05-30T08:48:05.169Z,18.89
2019-05-30T08:50:54.643Z,19.02
2019-05-30T08:53:25.539Z,18.89
2019-05-30T08:56:24.120Z,19.00
2019-05-30T08:59:28.890Z,19.27
2019-05-30T09:02:03.683Z,19.40
2019-05-30T09:05:06.133Z,19.56
2019-05-30T09:07:49.833Z,19.58
2019-05-30T09:10:20.275Z,19.74
2019-05-30T09:12:55.172Z,19.52
2019-05-30T09:15:26.282Z,19.72
2019-05-30T09:17:56.939Z,19.99
2019-05-30T09:20:30.763Z,20.30
2019-05-30T09:23:00.253Z,20.70
2019-05-30T09:25:30.779Z,20.78
2019-05-30T09:28:01.308Z,20.95
2019-05-30T09:30:31.905Z,21.20
2019-05-30T09:33:02.817Z,20.80
2019-05-30T09:35:33.205Z,21.18
2019-05-30T09:38:04.091Z,21.41
2019-05-30T09:40:35.961Z,21.28
2019-05-30T09:43:06.716Z,21.43
2019-05-30T09:45:46.019Z,21.76
2019-05-30T09:48:19.413Z,22.06
2019-05-30T09:50:51.123Z,22.15
2019-05-30T09:53:21.604Z,22.39
2019-05-30T09:55:55.098Z,22.49
2019-05-30T09:58:26.120Z,22.41
2019-05-30T10:00:56.756Z,22.46
2019-05-30T10:03:27.298Z,22.37
2019-05-30T10:06:00.020Z,22.23
2019-05-30T10:08:34.853Z,22.17
2019-05-30T10:11:05.274Z,22.67
2019-05-30T10:13:37.119Z,22.56
2019-05-30T10:16:08.457Z,23.07
2019-05-30T10:18:39.370Z,23.41
2019-05-30T10:21:10.137Z,23.66
2019-05-30T10:23:40.612Z,23.77
2019-05-30T10:26:11.468Z,23.66
2019-05-30T10:28:54.438Z,23.41
2019-05-30T10:31:25.151Z,23.75
2019-05-30T10:33:56.920Z,23.95
2019-05-30T10:36:43.423Z,23.41
2019-05-30T10:39:07.720Z,23.47
2019-05-30T10:41:44.577Z,23.73
2019-05-30T10:44:15.886Z,23.89
2019-05-30T10:46:48.638Z,23.89
2019-05-30T10:49:33.650Z,23.76
2019-05-30T10:51:57.445Z,23.52
2019-05-30T10:54:25.651Z,23.84
2019-05-30T10:56:56.195Z,24.22
2019-05-30T10:59:27.019Z,24.47
2019-05-30T11:01:57.913Z,24.12
2019-05-30T11:04:28.347Z,24.12
2019-05-30T11:07:16.207Z,24.49
2019-05-30T11:09:54.805Z,24.18
2019-05-30T11:12:26.654Z,23.91
2019-05-30T11:15:01.269Z,24.09
2019-05-30T11:17:40.802Z,23.97
2019-05-30T11:20:13.808Z,24.19
2019-05-30T11:22:47.877Z,24.22
2019-05-30T11:25:22.302Z,24.21
2019-05-30T11:27:55.133Z,24.12
2019-05-30T11:30:25.815Z,23.86
2019-05-30T11:32:57.296Z,23.95
2019-05-30T11:35:31.531Z,23.34
2019-05-30T11:38:16.724Z,23.59
2019-05-30T11:40:53.382Z,24.10
2019-05-30T11:43:27.785Z,24.58
2019-05-30T11:45:58.338Z,24.20
2019-05-30T11:48:30.622Z,24.19
2019-05-30T11:51:08.393Z,24.33
2019-05-30T11:53:39.111Z,24.19
2019-05-30T11:56:12.835Z,23.82
2019-05-30T11:58:43.491Z,24.00
2019-05-30T12:01:14.233Z,23.86
2019-05-30T12:03:44.652Z,23.74
2019-05-30T12:06:20.688Z,23.66
2019-05-30T12:08:59.098Z,23.06
2019-05-30T12:11:35.705Z,22.86
2019-05-30T12:14:08.158Z,23.01
2019-05-30T12:16:38.986Z,23.07
2019-05-30T12:19:15.649Z,23.15
2019-05-30T12:21:46.136Z,23.01
2019-05-30T12:24:18.886Z,22.79
2019-05-30T12:26:49.581Z,22.99
2019-05-30T12:29:20.030Z,23.02
2019-05-30T12:31:56.028Z,22.93
2019-05-30T12:34:23.099Z,22.39
2019-05-30T12:36:54.333Z,22.00
2019-05-30T12:39:26.390Z,21.44
2019-05-30T12:42:03.419Z,20.88
2019-05-30T12:44:40.256Z,21.00
2019-05-30T12:47:13.226Z,21.05
2019-05-30T12:49:44.073Z,20.75
2019-05-30T12:52:16.060Z,20.87
2019-05-30T12:54:48.305Z,21.05
2019-05-30T12:57:18.941Z,20.99
2019-05-30T12:59:49.530Z,21.25
2019-05-30T13:02:23.095Z,21.16
2019-05-30T13:05:00.976Z,21.15
2019-05-30T13:07:33.196Z,21.21
2019-05-30T13:10:06.142Z,21.00
2019-05-30T13:12:43.111Z,21.14
2019-05-30T13:15:16.919Z,21.09
2019-05-30T13:17:47.559Z,20.98
2019-05-30T13:20:21.976Z,20.82
2019-05-30T13:22:53.080Z,20.53
2019-05-30T13:25:26.462Z,20.63
2019-05-30T13:27:57.731Z,20.90
2019-05-30T13:30:28.295Z,21.11
2019-05-30T13:32:59.018Z,21.17
2019-05-30T13:35:29.495Z,21.36
2019-05-30T13:38:05.398Z,21.34
2019-05-30T13:40:46.805Z,21.44
2019-05-30T13:43:17.303Z,21.39
2019-05-30T13:45:47.733Z,21.46
2019-05-30T13:48:18.300Z,21.43
2019-05-30T13:50:49.467Z,21.75
2019-05-30T13:53:20.672Z,21.81
2019-05-30T13:55:51.137Z,21.79
2019-05-30T13:58:22.106Z,21.98
2019-05-30T14:00:52.444Z,22.06
2019-05-30T14:03:23.079Z,22.04
2019-05-30T14:05:57.146Z,21.88
2019-05-30T14:08:41.139Z,22.06
2019-05-30T14:11:08.667Z,22.34
2019-05-30T14:13:39.289Z,22.47
2019-05-30T14:16:11.091Z,22.70
2019-05-30T14:18:44.106Z,22.84
2019-05-30T14:21:16.267Z,23.07
2019-05-30T14:23:47.698Z,23.18
2019-05-30T14:26:19.744Z,23.29
2019-05-30T14:28:50.128Z,23.31
2019-05-30T14:31:21.160Z,23.20
2019-05-30T14:33:55.768Z,23.29
2019-05-30T14:36:26.229Z,23.44
2019-05-30T14:39:06.843Z,23.50
2019-05-30T14:41:37.643Z,23.58
2019-05-30T14:44:12.154Z,23.70
2019-05-30T14:46:48.374Z,23.44
2019-05-30T14:49:19.181Z,23.29
2019-05-30T14:51:52.330Z,23.41
2019-05-30T14:54:23.085Z,23.21
2019-05-30T14:56:54.317Z,23.30
2019-05-30T14:59:27.424Z,23.59
2019-05-30T15:02:05.239Z,23.94
2019-05-30T15:04:36.162Z,24.32
2019-05-30T15:07:07.407Z,24.27
2019-05-30T15:09:43.108Z,24.18
2019-05-30T15:12:16.879Z,24.24
2019-05-30T15:14:49.255Z,24.31
2019-05-30T15:17:30.051Z,24.03
2019-05-30T15:20:00.431Z,23.55
2019-05-30T15:22:31.937Z,23.67
2019-05-30T15:25:05.660Z,23.85
2019-05-30T15:27:38.666Z,24.01
2019-05-30T15:30:12.724Z,23.64
2019-05-30T15:32:49.005Z,23.17
2019-05-30T15:35:21.908Z,22.88
2019-05-30T15:37:55.885Z,22.88
2019-05-30T15:40:32.178Z,22.98
2019-05-30T15:43:20.632Z,23.19
2019-05-30T15:45:52.142Z,23.42
2019-05-30T15:48:28.918Z,23.70
2019-05-30T15:51:03.195Z,23.87
2019-05-30T15:53:34.081Z,23.62
2019-05-30T15:56:04.522Z,23.15
2019-05-30T15:58:37.115Z,22.68
2019-05-30T16:01:07.784Z,22.48
2019-05-30T16:03:43.325Z,22.21
2019-05-30T16:06:14.942Z,22.19
2019-05-30T16:08:49.723Z,22.13
2019-05-30T16:11:26.599Z,22.09
2019-05-30T16:14:05.614Z,22.11
2019-05-30T16:16:47.705Z,22.07
2019-05-30T16:22:14.288Z,22.21
2019-05-30T16:24:48.617Z,21.94
2019-05-30T16:27:23.863Z,21.85
2019-05-30T16:29:55.354Z,21.90
2019-05-30T16:32:26.535Z,22.20
2019-05-30T16:38:16.027Z,22.59
2019-05-30T16:40:47.691Z,22.85
2019-05-30T16:43:18.954Z,22.83
2019-05-30T16:45:50.448Z,22.74
2019-05-30T16:48:22.933Z,22.37
2019-05-30T16:50:56.366Z,22.03
2019-05-30T16:53:30.457Z,21.43
2019-05-30T16:56:04.905Z,21.14
2019-05-30T16:58:39.467Z,20.95
2019-05-30T17:01:15.759Z,20.80
2019-05-30T17:03:49.021Z,20.57
2019-05-30T17:06:22.565Z,20.36
2019-05-30T17:08:55.125Z,20.32
2019-05-30T17:11:31.041Z,20.11
2019-05-30T17:14:07.100Z,19.96
2019-05-30T17:20:39.269Z,19.88
2019-05-30T17:23:10.257Z,19.75
2019-05-30T17:25:41.115Z,19.78
2019-05-30T17:28:16.169Z,19.70
2019-05-30T17:30:48.090Z,19.64
2019-05-30T17:33:36.986Z,19.58
2019-05-30T17:36:10.399Z,19.60
2019-05-30T17:38:43.437Z,19.56
2019-05-30T17:41:14.839Z,19.47
2019-05-30T17:43:47.715Z,19.43
2019-05-30T17:46:27.769Z,19.39
2019-05-30T17:48:58.670Z,19.33
2019-05-30T17:51:30.015Z,19.20
2019-05-30T17:54:02.328Z,19.09
2019-05-30T17:56:32.733Z,19.00
2019-05-30T17:59:05.850Z,18.84
2019-05-30T18:01:41.218Z,18.68
2019-05-30T18:04:15.702Z,18.58
2019-05-30T18:06:52.090Z,18.46
2019-05-30T18:09:23.024Z,18.37
2019-05-30T18:11:56.091Z,18.28
2019-05-30T18:14:27.181Z,18.15
2019-05-30T18:17:01.082Z,18.06
2019-05-30T18:19:38.203Z,17.99
2019-05-30T18:22:13.430Z,17.91
2019-05-30T18:24:47.096Z,17.78
2019-05-30T18:27:21.740Z,17.68
2019-05-30T18:29:52.197Z,17.59
2019-05-30T18:32:24.082Z,17.49
2019-05-30T18:34:57.365Z,17.42
2019-05-30T18:37:30.417Z,17.35
2019-05-30T18:40:16.778Z,17.26
2019-05-30T18:42:50.028Z,17.16
2019-05-30T18:45:24.961Z,17.11
2019-05-30T18:47:55.903Z,17.04
2019-05-30T18:50:35.704Z,16.95
2019-05-30T18:53:07.123Z,16.90
2019-05-30T18:55:39.012Z,16.85
2019-05-30T18:58:19.310Z,16.79
2019-05-30T19:00:50.239Z,16.77
2019-05-30T19:03:24.494Z,16.69
2019-05-30T19:05:59.973Z,16.67
2019-05-30T19:08:36.165Z,16.61
2019-05-30T19:11:08.247Z,16.52
2019-05-30T19:13:38.322Z,16.45
2019-05-30T19:16:14.833Z,16.39
2019-05-30T19:18:45.273Z,16.34
2019-05-30T19:21:22.503Z,16.30
2019-05-30T19:24:00.440Z,16.25
2019-05-30T19:26:43.163Z,16.22
2019-05-30T19:29:13.596Z,16.17
2019-05-30T19:31:43.986Z,16.14
2019-05-30T19:34:20.750Z,16.15
2019-05-30T19:36:55.193Z,16.11
2019-05-30T19:39:25.623Z,16.08
2019-05-30T19:41:57.613Z,16.05
2019-05-30T19:44:28.230Z,16.01
2019-05-30T19:47:02.764Z,15.99
2019-05-30T19:49:40.392Z,15.92
2019-05-30T19:52:18.610Z,15.86
2019-05-30T19:54:53.343Z,15.78
2019-05-30T19:57:29.384Z,15.74
2019-05-30T20:00:00.164Z,15.69
2019-05-30T20:02:31.897Z,15.62
2019-05-30T20:05:04.148Z,15.57
2019-05-30T20:07:35.163Z,15.55
2019-05-30T20:10:06.203Z,15.52
2019-05-30T20:12:38.950Z,15.48
2019-05-30T20:15:10.744Z,15.50
2019-05-30T20:17:41.864Z,15.47
2019-05-30T20:20:16.926Z,15.46
2019-05-30T20:22:47.371Z,15.43
2019-05-30T20:25:23.283Z,15.37
2019-05-30T20:27:54.248Z,15.36
2019-05-30T20:30:33.610Z,15.33
2019-05-30T20:33:07.106Z,15.31
2019-05-30T20:35:43.394Z,15.33
2019-05-30T20:38:22.969Z,15.31
2019-05-30T20:40:53.763Z,15.31
2019-05-30T20:43:24.574Z,15.29
2019-05-30T20:45:58.081Z,15.28
2019-05-30T20:48:29.255Z,15.24
2019-05-30T20:51:00.455Z,15.26
2019-05-30T20:53:30.868Z,15.24
2019-05-30T20:56:02.994Z,15.20
2019-05-30T20:58:40.027Z,15.21
2019-05-30T21:01:14.800Z,15.18
2019-05-30T21:03:45.897Z,15.15
2019-05-30T21:06:17.076Z,15.17
2019-05-30T21:09:08.089Z,15.17
2019-05-30T21:11:42.183Z,15.18
2019-05-30T21:14:27.225Z,15.18
2019-05-30T21:16:52.290Z,15.19
2019-05-30T21:19:22.787Z,15.17
2019-05-30T21:21:54.195Z,15.15
2019-05-30T21:24:25.084Z,15.12
2019-05-30T21:26:55.819Z,15.13
2019-05-30T21:29:27.747Z,15.12
2019-05-30T21:31:58.235Z,15.10
2019-05-30T21:34:31.938Z,15.10
2019-05-30T21:37:03.850Z,15.07
2019-05-30T21:39:34.499Z,15.09
2019-05-30T21:42:08.085Z,15.06
2019-05-30T21:44:38.626Z,15.07
2019-05-30T21:47:09.671Z,15.08
2019-05-30T21:49:40.888Z,15.06
2019-05-30T21:52:12.786Z,15.03
2019-05-30T21:54:43.817Z,15.03
2019-05-30T21:57:14.644Z,15.02
2019-05-30T21:59:48.910Z,14.99
2019-05-30T22:02:25.992Z,14.96
2019-05-30T22:04:57.955Z,14.96
2019-05-30T22:07:31.706Z,14.97
2019-05-30T22:10:02.277Z,14.93
2019-05-30T22:12:35.764Z,14.93
2019-05-30T22:15:08.104Z,14.92
2019-05-30T22:17:41.621Z,14.93
2019-05-30T22:20:12.645Z,14.92
2019-05-30T22:22:43.878Z,14.92
2019-05-30T22:25:17.244Z,14.90
2019-05-30T22:27:50.463Z,14.88
2019-05-30T22:30:21.165Z,14.86
2019-05-30T22:32:52.796Z,14.85
2019-05-30T22:35:23.863Z,14.83
2019-05-30T22:37:54.261Z,14.81
2019-05-30T22:40:24.734Z,14.82
2019-05-30T22:42:56.394Z,14.81
2019-05-30T22:45:27.275Z,14.79
2019-05-30T22:47:59.313Z,14.78
2019-05-30T22:50:30.775Z,14.77
2019-05-30T22:53:01.206Z,14.77
2019-05-30T22:55:31.616Z,14.75
2019-05-30T22:58:02.043Z,14.73
2019-05-30T23:00:33.398Z,14.73
2019-05-30T23:03:04.294Z,14.70
2019-05-30T23:05:35.015Z,14.70
2019-05-30T23:08:05.882Z,14.70
2019-05-30T23:10:36.537Z,14.72
2019-05-30T23:13:10.220Z,14.71
2019-05-30T23:15:42.002Z,14.69
2019-05-30T23:18:12.575Z,14.70
2019-05-30T23:20:44.105Z,14.68
2019-05-30T23:23:14.555Z,14.65
2019-05-30T23:25:45.255Z,14.64
2019-05-30T23:28:15.867Z,14.63
2019-05-30T23:30:49.821Z,14.62
2019-05-30T23:33:21.178Z,14.61
2019-05-30T23:35:52.306Z,14.58
2019-05-30T23:38:23.064Z,14.59
2019-05-30T23:40:53.571Z,14.55
2019-05-30T23:43:27.769Z,14.52
2019-05-30T23:46:02.041Z,14.52
2019-05-30T23:48:32.157Z,14.50
2019-05-30T23:51:02.734Z,14.48
2019-05-30T23:53:33.110Z,14.47
2019-05-30T23:56:03.628Z,14.49
2019-05-30T23:58:35.952Z,14.56
